Time;durP1;ratioP1;P1;durP2;ratioP2;P2;SDS_P1;SDS_P2;PMS_P1;PMS_P2;Temp;Humidity;BMP_temperature;BMP_pressure;BME280_temperature;BME280_humidity;BME280_pressure;Samples;Min_cycle;Max_cycle;Signal;HPM_P1;HPM_P2
2023/10/14 04:31:55;;;;;;;;;3.00;1.00;;;;;22.88;39.88;100995.47;5006060;28;46633;-75
2023/10/14 04:34:22;;;;;;;;;1.00;1.00;;;;;22.72;39.81;100981.44;4977761;28;46270;-74
2023/10/14 04:36:54;;;;;;;;;2.00;0.75;;;;;22.67;39.98;100981.88;4976412;28;45329;-76
2023/10/14 04:39:29;;;;;;;;;2.00;1.00;;;;;22.65;40.25;100989.34;4975678;28;45396;-76
2023/10/14 04:44:45;;;;;;;;;2.00;2.00;;;;;22.61;40.54;100993.41;4984930;28;45384;-75
2023/10/14 04:49:57;;;;;;;;;1.00;1.00;;;;;22.77;39.31;100988.25;4995627;28;45393;-75
2023/10/14 04:52:26;;;;;;;;;0.75;0.75;;;;;22.60;40.13;100999.84;4995102;28;45369;-75
2023/10/14 04:54:53;;;;;;;;;2.00;1.00;;;;;22.77;40.09;101003.78;4995150;28;46188;-74
2023/10/14 04:57:25;;;;;;;;;1.25;0.50;;;;;22.64;39.89;101004.88;4982169;28;45466;-75
2023/10/14 04:59:54;;;;;;;;;0.25;0.00;;;;;22.56;39.52;101009.34;4994322;28;45333;-74
2023/10/14 05:02:24;;;;;;;;;2.75;1.75;;;;;22.42;40.04;100993.34;4986843;28;45529;-76
2023/10/14 05:04:51;;;;;;;;;2.00;1.00;;;;;22.57;40.17;101011.94;4979166;28;47589;-73
2023/10/14 05:07:19;;;;;;;;;1.50;1.50;;;;;22.44;39.84;101011.34;5034961;28;45485;-75
2023/10/14 05:09:56;;;;;;;;;3.25;0.25;;;;;22.39;40.44;101019.06;5034426;28;45695;-75
2023/10/14 05:12:24;;;;;;;;;2.50;1.50;;;;;22.35;40.45;100994.91;5034558;28;45725;-75
2023/10/14 05:14:52;;;;;;;;;5.00;2.00;;;;;22.50;40.10;101021.69;5034286;28;45322;-75
2023/10/14 05:17:18;;;;;;;;;2.25;1.00;;;;;22.46;40.02;101019.38;5034390;28;45499;-75
2023/10/14 05:19:44;;;;;;;;;1.25;1.25;;;;;22.57;40.24;101022.84;5034344;28;45465;-74
2023/10/14 05:22:19;;;;;;;;;1.75;1.00;;;;;22.47;40.30;101012.91;5034594;28;45508;-74
2023/10/14 05:24:52;;;;;;;;;1.00;1.00;;;;;22.50;40.09;101023.56;5034027;28;45394;-76
2023/10/14 05:27:21;;;;;;;;;3.50;1.75;;;;;22.45;39.92;101031.34;5034413;28;45242;-76
2023/10/14 05:29:51;;;;;;;;;3.00;2.00;;;;;22.44;39.74;101035.06;5034480;28;45391;-76
2023/10/14 05:32:24;;;;;;;;;0.00;0.00;;;;;22.34;40.41;101045.94;5033981;28;45387;-73
2023/10/14 05:34:50;;;;;;;;;1.00;1.00;;;;;22.22;40.47;101052.50;4996693;28;48512;-74
2023/10/14 05:37:16;;;;;;;;;2.00;2.00;;;;;22.21;40.39;101048.91;5014443;28;45479;-76
2023/10/14 05:39:42;;;;;;;;;2.25;2.00;;;;;22.12;40.45;101060.66;5018453;28;45261;-74
2023/10/14 05:42:20;;;;;;;;;2.00;0.25;;;;;22.08;40.67;101064.69;5014336;28;45203;-76
2023/10/14 05:44:54;;;;;;;;;1.00;1.00;;;;;22.11;40.88;101064.41;5014774;28;45694;-78
2023/10/14 05:47:20;;;;;;;;;3.50;3.00;;;;;22.27;40.98;101074.84;5015069;28;45419;-75
2023/10/14 05:49:46;;;;;;;;;2.25;0.50;;;;;22.20;40.95;101033.53;5015240;28;45331;-77
2023/10/14 05:52:12;;;;;;;;;3.50;2.00;;;;;22.39;41.16;101059.19;5013949;28;45355;-76
2023/10/14 05:54:38;;;;;;;;;2.00;2.00;;;;;22.57;40.15;101071.19;5013977;28;46646;-75
2023/10/14 05:57:08;;;;;;;;;1.00;1.00;;;;;22.30;40.36;101076.41;5031927;28;45505;-74
2023/10/14 05:59:37;;;;;;;;;1.00;1.00;;;;;22.17;40.70;101073.91;5033971;28;45393;-72
2023/10/14 06:02:07;;;;;;;;;1.50;1.00;;;;;22.24;40.79;101080.56;5027615;28;45567;-73
2023/10/14 06:04:39;;;;;;;;;3.50;2.00;;;;;22.33;40.73;101059.75;5009065;28;47583;-73
2023/10/14 06:07:08;;;;;;;;;1.00;0.75;;;;;22.37;39.96;101080.34;5033585;28;45287;-74
2023/10/14 06:09:35;;;;;;;;;4.25;1.25;;;;;22.50;40.00;101083.69;5032979;28;45390;-75
2023/10/14 06:12:01;;;;;;;;;1.00;1.00;;;;;22.52;38.97;101088.00;5035521;28;45393;-75
2023/10/14 06:14:26;;;;;;;;;0.25;0.25;;;;;22.67;39.39;101106.75;5037211;28;45386;-74
2023/10/14 06:16:51;;;;;;;;;3.25;1.25;;;;;22.66;39.62;101108.59;5037441;28;45415;-76
2023/10/14 06:19:18;;;;;;;;;4.25;3.00;;;;;22.54;39.43;101083.25;5036616;28;46307;-74
2023/10/14 06:21:44;;;;;;;;;1.00;1.00;;;;;22.74;38.84;101114.28;5037503;28;45342;-76
2023/10/14 06:24:12;;;;;;;;;1.00;1.00;;;;;22.77;39.22;101126.81;5034327;28;46155;-73
2023/10/14 06:26:39;;;;;;;;;1.00;1.00;;;;;22.67;38.65;101131.34;5036915;28;45383;-71
2023/10/14 06:29:05;;;;;;;;;1.00;1.00;;;;;22.72;38.85;101129.91;5018978;28;45548;-71
2023/10/14 06:31:31;;;;;;;;;1.00;1.00;;;;;22.64;39.30;101130.59;5019001;28;46920;-70
2023/10/14 06:33:57;;;;;;;;;2.00;1.25;;;;;22.81;38.97;101144.66;5036703;28;45493;-71
2023/10/14 06:36:24;;;;;;;;;3.00;2.00;;;;;22.75;38.86;101146.06;5036756;28;45379;-71
2023/10/14 06:38:50;;;;;;;;;3.00;3.00;;;;;22.71;38.34;101146.47;5056413;28;45338;-70
2023/10/14 06:41:18;;;;;;;;;0.50;0.00;;;;;22.61;38.75;101146.44;5056951;28;45637;-71
2023/10/14 06:43:55;;;;;;;;;0.25;0.25;;;;;22.61;38.65;101155.50;5057141;28;45472;-72
2023/10/14 06:46:21;;;;;;;;;3.00;1.25;;;;;22.62;39.15;101157.22;5056711;28;45435;-71
2023/10/14 06:48:52;;;;;;;;;2.00;0.50;;;;;22.80;38.54;101154.72;5056720;28;45361;-71
2023/10/14 06:51:18;;;;;;;;;2.00;1.00;;;;;22.88;38.05;101164.97;5056520;28;46188;-73
2023/10/14 06:53:44;;;;;;;;;1.00;1.00;;;;;22.93;38.21;101162.69;5055787;28;45410;-70
2023/10/14 06:56:11;;;;;;;;;1.00;1.00;;;;;22.98;38.40;101172.19;5055278;28;45485;-73
2023/10/14 06:58:39;;;;;;;;;1.75;1.75;;;;;22.95;37.76;101177.09;5038081;28;45425;-75
2023/10/14 07:01:05;;;;;;;;;1.00;1.00;;;;;23.01;37.67;101182.84;5017436;28;45692;-73
2023/10/14 07:03:33;;;;;;;;;2.75;1.50;;;;;22.95;37.62;101175.22;5036563;28;47365;-77
2023/10/14 07:05:59;;;;;;;;;3.75;1.50;;;;;22.97;37.49;101186.00;5017257;28;45466;-73
2023/10/14 07:08:27;;;;;;;;;1.25;0.00;;;;;22.95;37.94;101182.56;5034852;28;45424;-73
2023/10/14 07:10:54;;;;;;;;;1.00;1.00;;;;;23.05;37.66;101196.25;5035915;28;46024;-72
2023/10/14 07:13:23;;;;;;;;;3.25;1.25;;;;;22.74;37.67;101198.13;5049385;28;45572;-73
2023/10/14 07:15:51;;;;;;;;;2.25;1.00;;;;;22.74;38.26;101212.69;5036444;28;45460;-74
2023/10/14 07:18:23;;;;;;;;;4.00;2.00;;;;;22.62;39.07;101217.38;5036777;28;45270;-75
2023/10/14 07:21:08;;;;;;;;;2.25;1.75;;;;;22.58;39.36;101212.28;5036270;28;45236;-72
2023/10/14 07:23:36;;;;;;;;;3.00;1.00;;;;;22.42;38.79;101212.78;5034078;28;47674;-73
2023/10/14 07:26:12;;;;;;;;;3.00;1.75;;;;;22.61;38.96;101236.63;5036091;28;45375;-74
2023/10/14 07:28:42;;;;;;;;;3.25;2.00;;;;;22.62;39.18;101243.81;5036238;28;45319;-74
2023/10/14 07:31:10;;;;;;;;;2.50;1.00;;;;;22.32;38.84;101236.44;5035123;28;45494;-75
2023/10/14 07:33:37;;;;;;;;;10.50;9.00;;;;;22.26;39.54;101243.31;5035788;28;45345;-74
2023/10/14 07:36:06;;;;;;;;;2.50;1.00;;;;;22.20;39.48;101249.28;5035797;28;45372;-74
2023/10/14 07:38:33;;;;;;;;;3.00;3.00;;;;;22.28;39.42;101248.66;5035886;28;45280;-74
2023/10/14 07:41:01;;;;;;;;;2.50;1.75;;;;;22.08;39.68;101238.56;5035756;28;45501;-74
2023/10/14 07:43:27;;;;;;;;;3.00;1.75;;;;;22.36;39.83;101259.78;5035882;28;45325;-73
2023/10/14 07:45:52;;;;;;;;;3.25;1.25;;;;;22.26;39.92;101262.44;5035962;28;45381;-73
2023/10/14 07:48:19;;;;;;;;;1.50;1.50;;;;;22.36;40.01;101246.13;5035877;28;45327;-73
2023/10/14 07:50:47;;;;;;;;;3.00;1.25;;;;;22.48;39.94;101258.69;5035748;28;46069;-73
2023/10/14 07:53:15;;;;;;;;;2.00;2.00;;;;;22.59;39.50;101238.63;5048446;28;45165;-73
2023/10/14 07:55:48;;;;;;;;;1.00;1.00;;;;;22.83;39.43;101257.47;5042485;28;45458;-74
2023/10/14 07:58:19;;;;;;;;;4.00;2.25;;;;;22.82;38.24;101258.47;5041357;28;45394;-75
2023/10/14 08:00:52;;;;;;;;;1.00;1.00;;;;;22.90;38.91;101269.59;5035544;28;45486;-75
2023/10/14 08:03:25;;;;;;;;;5.00;2.00;;;;;22.93;38.65;101283.88;5036721;28;45679;-74
2023/10/14 08:05:53;;;;;;;;;5.00;2.00;;;;;22.76;38.06;101286.34;5035157;28;45260;-72
2023/10/14 08:08:19;;;;;;;;;3.25;1.00;;;;;22.59;38.69;101283.22;5034701;28;45279;-74
2023/10/14 08:10:47;;;;;;;;;3.00;3.00;;;;;22.65;38.66;101290.88;5035565;28;45253;-75
2023/10/14 08:13:13;;;;;;;;;4.75;2.00;;;;;22.72;37.68;101284.84;5032773;28;46158;-75
2023/10/14 08:15:40;;;;;;;;;5.00;2.00;;;;;22.67;38.06;101279.81;5034161;28;45519;-75
2023/10/14 08:18:06;;;;;;;;;4.75;1.50;;;;;22.60;38.35;101295.00;5035105;28;45355;-74
2023/10/14 08:20:35;;;;;;;;;3.00;2.00;;;;;22.41;38.64;101275.75;5035110;28;46148;-73
2023/10/14 08:23:09;;;;;;;;;1.25;1.00;;;;;22.32;38.35;101301.13;5034630;28;45332;-78
2023/10/14 08:25:35;;;;;;;;;1.00;1.00;;;;;22.27;38.63;101294.22;5017348;28;45676;-77
2023/10/14 08:28:04;;;;;;;;;4.50;2.00;;;;;22.32;37.48;101287.47;5035021;28;45456;-75
2023/10/14 08:30:32;;;;;;;;;5.00;3.00;;;;;22.26;38.04;101308.88;5034484;28;45299;-75
2023/10/14 08:32:58;;;;;;;;;3.00;1.00;;;;;22.27;38.42;101307.88;5034486;28;45406;-74
2023/10/14 08:35:27;;;;;;;;;3.00;1.25;;;;;22.10;38.54;101299.41;5033723;28;45501;-76
2023/10/14 08:37:54;;;;;;;;;4.00;1.00;;;;;22.42;38.31;101307.53;5036469;28;45308;-74
2023/10/14 08:40:21;;;;;;;;;6.25;2.25;;;;;22.37;38.17;101298.91;5054757;28;45337;-75
2023/10/14 08:42:49;;;;;;;;;2.50;1.25;;;;;22.38;38.63;101311.53;5054803;28;45491;-75
2023/10/14 08:45:20;;;;;;;;;1.00;1.00;;;;;22.61;38.75;101300.34;5054655;28;45416;-76
2023/10/14 08:47:48;;;;;;;;;2.00;2.00;;;;;22.83;38.34;101293.00;5020359;28;45486;-74
2023/10/14 08:50:15;;;;;;;;;2.75;1.00;;;;;22.96;37.68;101304.63;5039599;28;45333;-74
2023/10/14 08:52:45;;;;;;;;;2.75;2.00;;;;;23.08;37.78;101311.69;5034378;28;46146;-75
2023/10/14 08:55:13;;;;;;;;;2.50;1.00;;;;;22.98;37.52;101325.31;5036970;28;45428;-73
2023/10/14 08:57:39;;;;;;;;;0.00;0.00;;;;;22.93;36.63;101329.47;5045391;28;45327;-74
2023/10/14 09:00:05;;;;;;;;;0.50;0.50;;;;;22.64;36.88;101332.88;5034332;28;45259;-74
2023/10/14 09:02:31;;;;;;;;;1.00;1.00;;;;;22.62;37.42;101329.41;5035900;28;46204;-75
2023/10/14 09:04:59;;;;;;;;;2.75;1.00;;;;;22.64;37.12;101332.00;5034214;28;45168;-75
2023/10/14 09:07:24;;;;;;;;;1.00;1.00;;;;;22.87;37.32;101324.56;5034965;28;45420;-76
2023/10/14 09:09:53;;;;;;;;;2.75;0.00;;;;;23.09;36.19;101331.72;5034918;28;45533;-75
2023/10/14 09:12:18;;;;;;;;;1.50;1.25;;;;;23.14;36.40;101324.00;5035270;28;45445;-74
2023/10/14 09:14:44;;;;;;;;;4.75;1.00;;;;;23.29;36.31;101333.56;5034854;28;45502;-74
2023/10/14 09:17:10;;;;;;;;;1.50;0.75;;;;;23.36;36.03;101335.59;5035722;28;45299;-76
2023/10/14 09:19:49;;;;;;;;;2.25;0.50;;;;;23.53;36.12;101325.88;5038238;28;45213;-75
2023/10/14 09:22:23;;;;;;;;;0.75;0.75;;;;;23.74;35.72;101325.78;5050394;28;45601;-74
2023/10/14 09:24:50;;;;;;;;;1.25;1.00;;;;;23.73;35.15;101341.34;5051596;28;45524;-76
2023/10/14 09:27:17;;;;;;;;;0.00;0.00;;;;;23.72;35.19;101339.63;5051710;28;45451;-75
2023/10/14 09:29:43;;;;;;;;;2.00;1.00;;;;;23.91;35.05;101330.56;5049896;28;45318;-75
2023/10/14 09:32:08;;;;;;;;;1.00;0.00;;;;;24.06;34.46;101336.50;5050792;28;46092;-75
2023/10/14 09:34:34;;;;;;;;;1.00;1.00;;;;;24.00;34.82;101345.28;5053771;28;45325;-75
2023/10/14 09:37:10;;;;;;;;;1.25;1.00;;;;;24.07;34.45;101343.72;5035044;28;45433;-75
2023/10/14 09:39:48;;;;;;;;;1.25;0.75;;;;;24.08;34.57;101349.03;5049363;28;45330;-75
2023/10/14 09:42:15;;;;;;;;;1.00;0.00;;;;;23.99;34.64;101349.00;5044547;28;46301;-76
2023/10/14 09:44:45;;;;;;;;;0.00;0.00;;;;;23.85;35.18;101354.91;5034127;28;45481;-73
2023/10/14 09:47:15;;;;;;;;;0.00;0.00;;;;;23.94;35.50;101356.81;5034170;28;46025;-73
2023/10/14 09:49:43;;;;;;;;;2.00;0.75;;;;;23.85;35.71;101353.03;5047646;28;45519;-75
2023/10/14 09:52:14;;;;;;;;;2.25;1.25;;;;;23.76;35.81;101345.66;5039484;28;46450;-74
2023/10/14 09:54:41;;;;;;;;;0.00;0.00;;;;;23.97;35.36;101356.53;5037779;28;45379;-74
2023/10/14 09:57:10;;;;;;;;;2.75;1.00;;;;;23.73;35.15;101357.75;5042972;28;46470;-76
2023/10/14 09:59:37;;;;;;;;;1.00;1.00;;;;;23.90;35.76;101356.25;5057839;28;45271;-75
2023/10/14 10:02:05;;;;;;;;;2.00;0.75;;;;;23.67;36.13;101369.28;5051044;28;45481;-72
2023/10/14 10:04:33;;;;;;;;;1.00;1.00;;;;;23.81;35.71;101359.81;5037446;28;45480;-74
2023/10/14 10:07:20;;;;;;;;;2.75;1.25;;;;;23.61;35.71;101369.84;5037395;28;45387;-77
2023/10/14 10:10:13;;;;;;;;;1.00;1.00;;;;;23.81;35.55;101376.25;5037036;28;45365;-73
2023/10/14 10:12:41;;;;;;;;;2.00;0.75;;;;;23.83;35.77;101376.97;5037142;28;46064;-75
2023/10/14 10:15:07;;;;;;;;;1.25;0.75;;;;;23.94;35.21;101378.72;5037438;28;45500;-74
2023/10/14 10:17:34;;;;;;;;;0.75;0.75;;;;;23.93;35.13;101375.09;5019411;28;45442;-73
2023/10/14 10:20:16;;;;;;;;;2.50;1.00;;;;;24.06;35.44;101388.56;5037212;28;45632;-76
2023/10/14 10:22:45;;;;;;;;;4.00;1.00;;;;;24.16;34.95;101385.84;5036948;28;45253;-72
2023/10/14 10:25:14;;;;;;;;;3.00;1.75;;;;;24.32;34.11;101381.56;5037159;28;45500;-75
2023/10/14 10:27:41;;;;;;;;;1.75;1.75;;;;;24.32;34.47;101388.91;5036819;28;45221;-75
2023/10/14 10:30:11;;;;;;;;;3.25;0.25;;;;;24.31;34.11;101393.53;5037376;28;45317;-72
2023/10/14 10:32:38;;;;;;;;;4.75;2.00;;;;;23.68;33.58;101411.22;5036466;28;45474;-75
2023/10/14 10:35:06;;;;;;;;;1.00;0.75;;;;;24.09;33.07;101402.81;5037128;28;45386;-77
2023/10/14 10:37:37;;;;;;;;;1.50;1.00;;;;;23.93;33.67;101407.09;5036674;28;45519;-75
2023/10/14 10:40:10;;;;;;;;;3.00;1.00;;;;;24.01;34.12;101410.88;5036671;28;45355;-76
2023/10/14 10:42:36;;;;;;;;;2.00;0.00;;;;;23.99;34.51;101403.78;5057965;28;45995;-75
2023/10/14 10:45:08;;;;;;;;;0.50;0.50;;;;;24.04;33.90;101413.34;5056023;28;45489;-74
2023/10/14 10:47:43;;;;;;;;;1.00;1.00;;;;;24.17;33.44;101418.53;5051083;28;45165;-72
2023/10/14 10:50:16;;;;;;;;;2.25;0.00;;;;;24.16;33.92;101421.44;5050652;28;45842;-72
2023/10/14 10:52:41;;;;;;;;;1.00;1.00;;;;;24.12;34.11;101426.34;5054867;28;45483;-77
2023/10/14 10:55:07;;;;;;;;;0.00;0.00;;;;;23.97;35.39;101425.88;5055603;28;46087;-78
2023/10/14 10:57:33;;;;;;;;;7.00;2.00;;;;;23.54;36.55;101430.75;5046655;28;45231;-80
2023/10/14 10:59:58;;;;;;;;;3.00;2.00;;;;;23.55;37.14;101429.75;5051961;28;45324;-75
2023/10/14 11:02:24;;;;;;;;;4.00;1.00;;;;;23.27;36.70;101434.03;5047903;28;45442;-76
2023/10/14 11:04:49;;;;;;;;;1.00;1.00;;;;;23.32;36.89;101442.69;5042836;28;45529;-73
2023/10/14 11:07:23;;;;;;;;;0.75;0.75;;;;;23.23;38.40;101443.50;5041048;28;45480;-76
2023/10/14 11:09:49;;;;;;;;;2.00;2.00;;;;;23.19;38.32;101433.84;5055055;28;45473;-74
2023/10/14 11:12:15;;;;;;;;;1.00;1.00;;;;;23.00;39.03;101426.38;5049356;28;46141;-75
2023/10/14 11:14:40;;;;;;;;;1.75;1.75;;;;;23.16;38.92;101432.25;5038485;28;45291;-77
2023/10/14 11:17:06;;;;;;;;;0.50;0.50;;;;;23.06;39.33;101411.28;5019132;28;45372;-79
2023/10/14 11:19:32;;;;;;;;;1.00;1.00;;;;;23.27;38.35;101443.13;5037959;28;45551;-75
2023/10/14 11:22:00;;;;;;;;;1.00;1.00;;;;;23.22;39.08;101441.81;5046559;28;45514;-76
2023/10/14 11:24:30;;;;;;;;;1.00;1.00;;;;;23.26;38.49;101443.25;5049838;28;45565;-71
2023/10/14 11:26:57;;;;;;;;;2.00;2.00;;;;;23.13;38.70;101448.09;5033788;28;45581;-70
2023/10/14 11:29:27;;;;;;;;;3.50;0.75;;;;;23.11;38.33;101440.00;5058797;28;45476;-70
2023/10/14 11:31:59;;;;;;;;;4.00;2.00;;;;;23.01;38.81;101414.44;5053249;28;45579;-72
2023/10/14 11:34:25;;;;;;;;;1.50;0.75;;;;;23.19;38.78;101453.00;5056149;28;45299;-75
2023/10/14 11:36:50;;;;;;;;;1.25;1.00;;;;;23.28;38.47;101457.66;5054840;28;46462;-75
2023/10/14 11:39:19;;;;;;;;;4.25;2.00;;;;;23.32;38.69;101457.25;5048826;28;45238;-74
2023/10/14 11:41:46;;;;;;;;;2.50;1.00;;;;;23.38;39.01;101451.25;5049894;28;45645;-77
2023/10/14 11:44:17;;;;;;;;;1.00;1.00;;;;;23.59;38.95;101453.97;5035577;28;45410;-74
2023/10/14 11:46:43;;;;;;;;;1.00;1.00;;;;;23.75;38.58;101442.50;5036167;28;45516;-75
2023/10/14 11:49:13;;;;;;;;;2.75;1.75;;;;;23.95;38.55;101465.34;5017406;28;46423;-74
2023/10/14 11:51:43;;;;;;;;;1.50;1.50;;;;;23.98;39.06;101465.97;5035501;28;45392;-74
2023/10/14 11:54:12;;;;;;;;;1.75;1.75;;;;;23.81;39.68;101452.06;5035514;28;45315;-74
2023/10/14 11:56:42;;;;;;;;;2.00;1.00;;;;;23.74;40.17;101455.31;5049179;28;45521;-73
2023/10/14 11:59:08;;;;;;;;;2.75;1.00;;;;;23.72;40.63;101456.50;5035374;28;46472;-74
2023/10/14 12:01:34;;;;;;;;;3.25;3.25;;;;;23.66;39.62;101444.19;5036269;28;46416;-75
2023/10/14 12:04:03;;;;;;;;;2.00;2.00;;;;;23.29;40.09;101443.00;5035860;28;45844;-72
2023/10/14 12:06:30;;;;;;;;;4.25;3.00;;;;;23.20;40.32;101439.19;5035680;28;45400;-75
2023/10/14 12:08:56;;;;;;;;;4.00;3.75;;;;;23.25;40.91;101445.13;5035171;28;45533;-76
2023/10/14 12:11:22;;;;;;;;;2.00;2.00;;;;;23.39;39.35;101452.97;5035432;28;45428;-76
2023/10/14 12:13:51;;;;;;;;;3.25;3.25;;;;;23.48;39.45;101440.34;5036065;28;45263;-75
2023/10/14 12:16:21;;;;;;;;;4.75;3.00;;;;;23.67;39.68;101445.94;5035577;28;45466;-75
2023/10/14 12:18:46;;;;;;;;;3.00;2.00;;;;;23.71;39.06;101444.69;5033463;28;45491;-77
2023/10/14 12:21:12;;;;;;;;;2.00;2.00;;;;;23.85;38.80;101445.28;5047324;28;45511;-77
2023/10/14 12:23:38;;;;;;;;;6.75;4.00;;;;;23.82;39.23;101442.84;5036085;28;45422;-79
2023/10/14 12:26:03;;;;;;;;;1.75;1.25;;;;;23.98;39.36;101445.91;5038995;28;45165;-78
2023/10/14 12:28:30;;;;;;;;;2.00;2.00;;;;;23.98;39.40;101443.19;5035013;28;45402;-77
2023/10/14 12:30:58;;;;;;;;;2.75;1.75;;;;;24.09;38.87;101419.25;5016941;28;47866;-77
2023/10/14 12:33:31;;;;;;;;;2.25;2.25;;;;;24.03;39.10;101432.66;5035466;28;45442;-76
2023/10/14 12:35:58;;;;;;;;;1.00;1.00;;;;;24.19;39.58;101429.38;5035581;28;45519;-73
2023/10/14 12:38:26;;;;;;;;;4.50;3.00;;;;;24.10;39.10;101440.16;5035238;28;45955;-75
2023/10/14 12:40:52;;;;;;;;;1.00;1.00;;;;;23.84;39.40;101438.94;5017245;28;47180;-79
2023/10/14 12:43:28;;;;;;;;;2.00;2.00;;;;;23.92;38.13;101438.25;5035418;28;45310;-80
2023/10/14 12:46:19;;;;;;;;;2.00;2.00;;;;;24.12;37.44;101435.41;5036338;28;45364;-83
2023/10/14 12:48:46;;;;;;;;;0.00;0.00;;;;;24.38;37.16;101438.53;5018188;28;46671;-73
2023/10/14 12:51:17;;;;;;;;;4.00;3.00;;;;;24.25;36.69;101457.09;5035340;28;46263;-77
2023/10/14 12:53:49;;;;;;;;;1.00;1.00;;;;;24.13;36.88;101461.81;5035018;28;45224;-77
2023/10/14 12:56:20;;;;;;;;;2.00;0.00;;;;;24.25;35.84;101456.22;5046551;28;45425;-73
2023/10/14 12:58:48;;;;;;;;;3.00;1.00;;;;;24.28;35.25;101456.81;5035780;28;45493;-82
2023/10/14 13:01:19;;;;;;;;;2.75;1.00;;;;;24.12;33.49;101459.22;5035195;28;45992;-72
2023/10/14 13:03:52;;;;;;;;;0.00;0.00;;;;;24.54;33.45;101464.50;5034544;28;45332;-74
2023/10/14 13:06:26;;;;;;;;;1.00;0.00;;;;;24.86;32.60;101460.47;5034372;28;45390;-73
2023/10/14 13:08:53;;;;;;;;;2.00;0.75;;;;;24.91;33.01;101453.69;5047255;28;45438;-74
2023/10/14 13:11:19;;;;;;;;;0.25;0.00;;;;;24.68;32.64;101455.84;5034372;28;46019;-73
2023/10/14 13:13:52;;;;;;;;;1.00;1.00;;;;;24.62;32.70;101471.00;5034120;28;45637;-74
2023/10/14 13:16:18;;;;;;;;;0.00;0.00;;;;;24.34;32.63;101447.16;5032834;28;45567;-73
2023/10/14 13:18:45;;;;;;;;;2.00;1.00;;;;;24.24;33.83;101469.09;5043683;28;45271;-73
2023/10/14 13:21:14;;;;;;;;;1.00;0.50;;;;;24.10;33.73;101472.19;5039737;28;45333;-71
2023/10/14 13:23:41;;;;;;;;;1.00;1.00;;;;;24.13;34.07;101472.78;5054211;28;45481;-73
2023/10/14 13:26:09;;;;;;;;;1.50;0.50;;;;;24.27;34.49;101471.53;5054216;28;45481;-72
2023/10/14 13:28:35;;;;;;;;;2.00;0.25;;;;;24.37;34.66;101471.56;5054150;28;45406;-71
2023/10/14 13:31:01;;;;;;;;;1.00;1.00;;;;;24.25;34.33;101469.94;5053403;28;46258;-73
2023/10/14 13:33:26;;;;;;;;;4.25;1.50;;;;;24.05;35.40;101471.75;5054186;28;45449;-73
2023/10/14 13:35:55;;;;;;;;;2.00;1.00;;;;;24.09;35.61;101465.81;5054330;28;45339;-72
2023/10/14 13:38:23;;;;;;;;;3.00;1.00;;;;;24.03;35.99;101463.66;5054143;28;45331;-72
2023/10/14 13:40:53;;;;;;;;;2.50;1.00;;;;;24.26;35.89;101458.84;5054073;28;45321;-72
2023/10/14 13:43:18;;;;;;;;;1.00;1.00;;;;;25.23;35.07;101463.34;5054003;28;45377;-72
2023/10/14 13:45:44;;;;;;;;;1.25;1.25;;;;;25.75;33.52;101463.81;5036135;28;45365;-72
2023/10/14 13:48:09;;;;;;;;;1.25;0.50;;;;;26.69;32.25;101464.41;5054064;28;45293;-76
2023/10/14 13:50:39;;;;;;;;;1.00;1.00;;;;;26.97;31.24;101460.53;5053998;28;45486;-71
2023/10/14 13:53:09;;;;;;;;;2.50;1.50;;;;;27.26;31.11;101454.75;5053963;28;45456;-78
2023/10/14 13:55:38;;;;;;;;;2.75;0.75;;;;;27.30;31.14;101455.31;5053873;28;45255;-77
2023/10/14 13:58:11;;;;;;;;;3.00;1.00;;;;;27.66;30.63;101456.06;5043238;28;45569;-75
2023/10/14 14:00:37;;;;;;;;;0.75;0.75;;;;;28.27;30.11;101461.34;5051900;28;46367;-75
2023/10/14 14:03:08;;;;;;;;;0.00;0.00;;;;;28.36;28.25;101457.59;5038569;28;45524;-74
2023/10/14 14:05:34;;;;;;;;;2.50;0.00;;;;;28.18;28.54;101454.97;5035351;28;45624;-74
2023/10/14 14:08:01;;;;;;;;;0.00;0.00;;;;;28.29;28.60;101444.66;5050672;28;45592;-75
2023/10/14 14:10:26;;;;;;;;;0.00;0.00;;;;;27.97;28.47;101454.53;5035744;28;48021;-75
2023/10/14 14:12:54;;;;;;;;;0.00;0.00;;;;;27.66;28.61;101469.84;5038109;28;45432;-75
2023/10/14 14:15:21;;;;;;;;;0.75;0.75;;;;;27.11;29.69;101446.22;5033117;28;45540;-75
2023/10/14 14:17:48;;;;;;;;;0.50;0.50;;;;;26.85;30.12;101463.69;5033396;28;45410;-73
2023/10/14 14:20:16;;;;;;;;;0.75;0.75;;;;;26.39;29.90;101473.88;5041136;28;46116;-75
2023/10/14 14:22:45;;;;;;;;;0.25;0.25;;;;;25.85;31.45;101480.25;5052589;28;45440;-75
2023/10/14 14:25:12;;;;;;;;;1.00;1.00;;;;;25.31;32.93;101498.28;5052411;28;45540;-74
2023/10/14 14:27:39;;;;;;;;;3.75;0.00;;;;;25.06;33.58;101505.25;5052750;28;45453;-74
2023/10/14 14:30:08;;;;;;;;;1.00;1.00;;;;;25.02;34.19;101505.69;5052425;28;45935;-77
2023/10/14 14:32:38;;;;;;;;;1.00;1.00;;;;;24.69;34.93;101518.78;5048938;28;45433;-74
2023/10/14 14:35:08;;;;;;;;;0.00;0.00;;;;;24.43;34.67;101512.97;5036036;28;45413;-74
2023/10/14 14:37:38;;;;;;;;;1.00;1.00;;;;;23.87;35.33;101509.88;5054085;28;45442;-75
2023/10/14 14:40:14;;;;;;;;;0.00;0.00;;;;;23.84;35.40;101518.34;5056411;28;45302;-78
2023/10/14 14:42:40;;;;;;;;;2.00;0.00;;;;;23.66;35.91;101520.84;5054579;28;45486;-75
2023/10/14 14:45:10;;;;;;;;;2.00;1.00;;;;;23.47;36.74;101514.41;5042859;28;45410;-75
2023/10/14 14:47:37;;;;;;;;;1.50;0.75;;;;;23.56;36.59;101510.88;5036536;28;45208;-75
2023/10/14 14:50:03;;;;;;;;;0.50;0.00;;;;;23.62;36.76;101508.47;5046222;28;45268;-76
2023/10/14 14:52:28;;;;;;;;;1.00;1.00;;;;;23.85;36.30;101530.19;5055936;28;45421;-73
2023/10/14 14:54:54;;;;;;;;;0.00;0.00;;;;;23.93;36.33;101533.97;5056056;28;45361;-73
2023/10/14 14:57:20;;;;;;;;;1.00;1.00;;;;;23.85;36.07;101520.09;5030930;28;46013;-72
2023/10/14 14:59:46;;;;;;;;;0.00;0.00;;;;;23.73;36.14;101529.41;5045804;28;46072;-74
2023/10/14 15:02:11;;;;;;;;;2.00;0.25;;;;;23.59;35.98;101518.81;5048527;28;45366;-73
2023/10/14 15:04:38;;;;;;;;;0.00;0.00;;;;;23.76;36.13;101523.66;5017217;28;46373;-72
2023/10/14 15:07:04;;;;;;;;;0.00;0.00;;;;;24.07;36.05;101521.78;5035553;28;45572;-73
2023/10/14 15:09:29;;;;;;;;;0.00;0.00;;;;;24.43;35.20;101503.88;5035724;28;45348;-74
2023/10/14 15:11:55;;;;;;;;;0.00;0.00;;;;;24.97;33.59;101522.59;5053430;28;45347;-73
2023/10/14 15:14:21;;;;;;;;;3.00;1.00;;;;;25.25;31.95;101508.00;5054971;28;45337;-72
2023/10/14 15:16:47;;;;;;;;;0.00;0.00;;;;;25.59;32.19;101522.13;5036389;28;45313;-73
2023/10/14 15:19:15;;;;;;;;;0.00;0.00;;;;;26.10;31.73;101525.41;5035900;28;48957;-74
2023/10/14 15:21:41;;;;;;;;;1.75;0.00;;;;;26.08;30.60;101532.91;5036733;28;45543;-72
2023/10/14 15:24:09;;;;;;;;;0.00;0.00;;;;;26.33;30.29;101518.50;5036977;28;45465;-77
2023/10/14 15:26:35;;;;;;;;;0.00;0.00;;;;;26.37;30.89;101519.91;5049042;28;45283;-79
2023/10/14 15:29:04;;;;;;;;;0.00;0.00;;;;;26.76;30.71;101526.03;5050373;28;46173;-74
2023/10/14 15:31:31;;;;;;;;;1.00;0.00;;;;;27.01;29.91;101522.53;5056202;28;45418;-73
2023/10/14 15:33:56;;;;;;;;;1.75;0.00;;;;;27.10;29.79;101507.81;5056011;28;45324;-73
2023/10/14 15:36:22;;;;;;;;;1.75;0.00;;;;;27.01;30.22;101499.63;5056144;28;45303;-73
2023/10/14 15:38:51;;;;;;;;;1.50;0.50;;;;;27.06;29.59;101520.16;5035654;28;46077;-74
2023/10/14 15:41:16;;;;;;;;;0.00;0.00;;;;;26.88;29.82;101519.25;5035736;28;45281;-78
2023/10/14 15:43:42;;;;;;;;;1.00;1.00;;;;;26.81;30.16;101511.78;5035295;28;45577;-76
2023/10/14 15:46:08;;;;;;;;;0.00;0.00;;;;;26.50;30.90;101508.56;5036019;28;45378;-75
2023/10/14 15:48:34;;;;;;;;;2.00;0.00;;;;;26.35;30.94;101514.59;5036031;28;46275;-75
2023/10/14 15:50:59;;;;;;;;;1.00;1.00;;;;;26.40;31.33;101514.09;5035608;28;45268;-71
2023/10/14 15:53:28;;;;;;;;;0.75;0.75;;;;;26.55;31.01;101525.44;5035473;28;45394;-73
2023/10/14 15:55:53;;;;;;;;;2.50;1.00;;;;;26.25;31.42;101527.47;5042272;28;45567;-74
2023/10/14 15:58:21;;;;;;;;;0.00;0.00;;;;;25.93;31.88;101516.06;5040303;28;45313;-76
2023/10/14 16:00:50;;;;;;;;;0.00;0.00;;;;;25.63;31.84;101528.16;5051399;28;45223;-78
2023/10/14 16:03:16;;;;;;;;;0.00;0.00;;;;;25.59;31.72;101521.25;5039081;28;45462;-73
2023/10/14 16:05:44;;;;;;;;;1.00;1.00;;;;;25.26;31.72;101533.56;5034867;28;45599;-71